createdAt,value
2022-10-02T00:00:55.953Z,2.60
2022-10-02T00:01:56.331Z,2.90
2022-10-02T00:02:56.439Z,2.50
2022-10-02T00:03:56.762Z,2.70
2022-10-02T00:04:56.891Z,2.50
2022-10-02T00:06:04.141Z,2.80
2022-10-02T00:06:57.318Z,2.60
2022-10-02T00:07:57.538Z,2.90
2022-10-02T00:08:57.751Z,2.50
2022-10-02T00:09:57.995Z,2.30
2022-10-02T00:10:58.235Z,2.50
2022-10-02T00:11:58.459Z,3.10
2022-10-02T00:12:58.677Z,2.30
2022-10-02T00:13:58.912Z,2.50
2022-10-02T00:14:59.148Z,2.60
2022-10-02T00:15:59.421Z,2.30
2022-10-02T00:16:59.649Z,2.30
2022-10-02T00:17:59.855Z,2.70
2022-10-02T00:19:00.075Z,2.60
2022-10-02T00:20:00.301Z,2.60
2022-10-02T00:21:00.506Z,2.30
2022-10-02T00:22:00.718Z,2.80
2022-10-02T00:23:00.931Z,2.20
2022-10-02T00:24:01.155Z,2.60
2022-10-02T00:25:01.407Z,2.50
2022-10-02T00:26:01.663Z,2.60
2022-10-02T00:27:01.911Z,2.50
2022-10-02T00:28:02.165Z,2.60
2022-10-02T00:29:02.289Z,2.40
2022-10-02T00:30:02.545Z,2.40
2022-10-02T00:31:02.767Z,2.90
2022-10-02T00:32:03.101Z,2.60
2022-10-02T00:33:03.416Z,2.70
2022-10-02T00:34:03.402Z,2.20
2022-10-02T00:35:03.644Z,2.10
2022-10-02T00:36:03.864Z,2.40
2022-10-02T00:37:04.057Z,2.30
2022-10-02T00:38:04.285Z,2.30
2022-10-02T00:39:04.522Z,2.40
2022-10-02T00:40:04.756Z,2.50
2022-10-02T00:41:04.968Z,2.30
2022-10-02T00:42:05.184Z,2.40
2022-10-02T00:43:05.402Z,2.30
2022-10-02T00:44:05.612Z,2.40
2022-10-02T00:45:05.831Z,2.40
2022-10-02T00:46:06.084Z,2.30
2022-10-02T00:47:06.283Z,2.30
2022-10-02T00:48:06.553Z,2.50
2022-10-02T00:49:06.771Z,2.30
2022-10-02T00:50:07.000Z,2.50
2022-10-02T00:51:07.213Z,2.20
2022-10-02T00:52:07.425Z,2.50
2022-10-02T00:53:07.651Z,2.60
2022-10-02T00:54:07.869Z,3.20
2022-10-02T00:55:08.095Z,2.40
2022-10-02T00:56:08.300Z,2.50
2022-10-02T00:57:08.523Z,2.30
2022-10-02T00:58:08.727Z,2.80
2022-10-02T00:59:08.936Z,2.20
2022-10-02T01:00:09.151Z,2.30
2022-10-02T01:01:09.421Z,2.60
2022-10-02T01:02:09.545Z,2.50
2022-10-02T01:03:09.757Z,2.30
2022-10-02T01:04:09.988Z,2.70
2022-10-02T01:05:10.217Z,2.30
2022-10-02T01:06:10.427Z,2.60
2022-10-02T01:07:10.639Z,2.70
2022-10-02T01:08:10.846Z,2.50
2022-10-02T01:09:11.055Z,2.60
2022-10-02T01:10:11.275Z,2.80
2022-10-02T01:11:11.476Z,2.80
2022-10-02T01:12:11.694Z,3.10
2022-10-02T01:13:11.905Z,2.50
2022-10-02T01:14:12.127Z,2.50
2022-10-02T01:15:12.380Z,2.70
2022-10-02T01:16:12.644Z,3.20
2022-10-02T01:17:12.865Z,2.70
2022-10-02T01:18:13.084Z,2.70
2022-10-02T01:19:13.298Z,2.60
2022-10-02T01:20:13.547Z,2.50
2022-10-02T01:21:13.765Z,2.80
2022-10-02T01:22:13.978Z,2.50
2022-10-02T01:23:14.188Z,2.40
2022-10-02T01:24:14.432Z,2.80
2022-10-02T01:25:14.688Z,2.70
2022-10-02T01:26:14.924Z,2.80
2022-10-02T01:27:15.157Z,3.30
2022-10-02T01:28:15.447Z,2.70
2022-10-02T01:29:15.551Z,2.90
2022-10-02T01:30:15.803Z,2.40
2022-10-02T01:31:16.206Z,2.80
2022-10-02T01:32:16.246Z,2.40
2022-10-02T01:33:16.476Z,2.60
2022-10-02T01:34:16.697Z,3.20
2022-10-02T01:35:16.932Z,2.90
2022-10-02T01:36:17.161Z,2.60
2022-10-02T01:37:17.374Z,2.80
2022-10-02T01:38:17.597Z,2.60
2022-10-02T01:39:17.811Z,2.60
2022-10-02T01:40:18.071Z,2.90
2022-10-02T01:41:18.290Z,2.60
2022-10-02T01:42:18.505Z,2.60
2022-10-02T01:43:18.709Z,2.50
2022-10-02T01:44:18.921Z,2.70
2022-10-02T01:45:19.158Z,2.50
2022-10-02T01:46:19.387Z,2.70
2022-10-02T01:47:19.599Z,2.90
2022-10-02T01:48:19.810Z,2.80
2022-10-02T01:49:20.028Z,2.80
2022-10-02T01:50:20.273Z,2.60
2022-10-02T01:51:20.494Z,2.70
2022-10-02T01:52:20.742Z,2.90
2022-10-02T01:53:20.970Z,2.60
2022-10-02T01:54:21.210Z,2.80
2022-10-02T01:55:21.441Z,2.80
2022-10-02T01:56:21.664Z,2.80
2022-10-02T01:57:21.889Z,2.80
2022-10-02T01:58:22.120Z,2.90
2022-10-02T01:59:22.347Z,2.80
2022-10-02T02:00:22.583Z,3.10
2022-10-02T02:01:22.841Z,2.90
2022-10-02T02:02:23.088Z,2.90
2022-10-02T02:03:23.198Z,2.80
2022-10-02T02:04:23.414Z,2.70
2022-10-02T02:05:23.649Z,2.80
2022-10-02T02:06:23.866Z,3.00
2022-10-02T02:07:24.086Z,2.80
2022-10-02T02:08:24.318Z,3.00
2022-10-02T02:09:24.536Z,3.00
2022-10-02T02:10:24.775Z,2.80
2022-10-02T02:11:25.004Z,2.60
2022-10-02T02:12:25.260Z,3.00
2022-10-02T02:13:25.486Z,2.80
2022-10-02T02:14:25.722Z,2.90
2022-10-02T02:15:26.002Z,2.70
2022-10-02T02:16:26.295Z,3.10
2022-10-02T02:17:26.537Z,3.00
2022-10-02T02:18:26.680Z,3.30
2022-10-02T02:19:26.903Z,3.10
2022-10-02T02:20:27.143Z,2.70
2022-10-02T02:21:27.364Z,3.10
2022-10-02T02:22:27.576Z,2.90
2022-10-02T02:23:27.806Z,3.40
2022-10-02T02:24:28.041Z,3.00
2022-10-02T02:25:28.310Z,2.90
2022-10-02T02:26:28.543Z,3.30
2022-10-02T02:27:28.771Z,2.70
2022-10-02T02:28:29.018Z,2.80
2022-10-02T02:29:29.221Z,3.00
2022-10-02T02:30:29.688Z,3.00
2022-10-02T02:31:29.726Z,2.80
2022-10-02T02:32:29.958Z,3.10
2022-10-02T02:33:30.185Z,2.60
2022-10-02T02:34:30.405Z,2.90
2022-10-02T02:35:30.660Z,2.80
2022-10-02T02:36:30.883Z,2.70
2022-10-02T02:37:31.117Z,3.10
2022-10-02T02:38:31.340Z,2.60
2022-10-02T02:39:31.568Z,2.90
2022-10-02T02:40:31.824Z,2.90
2022-10-02T02:41:32.049Z,2.90
2022-10-02T02:42:32.282Z,2.80
2022-10-02T02:43:32.519Z,2.90
2022-10-02T02:44:32.762Z,3.40
2022-10-02T02:45:33.059Z,3.10
2022-10-02T02:46:33.291Z,3.00
2022-10-02T02:47:33.418Z,2.80
2022-10-02T02:48:33.645Z,2.30
2022-10-02T02:49:33.864Z,2.80
2022-10-02T02:50:34.093Z,2.60
2022-10-02T02:51:34.325Z,2.40
2022-10-02T02:52:34.536Z,2.80
2022-10-02T02:53:34.758Z,2.80
2022-10-02T02:54:34.976Z,3.20
2022-10-02T02:55:35.219Z,2.80
2022-10-02T02:56:35.717Z,2.80
2022-10-02T02:57:35.715Z,2.90
2022-10-02T02:58:35.937Z,2.80
2022-10-02T02:59:36.165Z,2.80
2022-10-02T03:00:36.395Z,2.70
2022-10-02T03:01:36.628Z,2.90
2022-10-02T03:02:36.937Z,2.50
2022-10-02T03:03:37.048Z,2.80
2022-10-02T03:04:37.288Z,2.90
2022-10-02T03:05:37.513Z,2.80
2022-10-02T03:06:38.246Z,2.70
2022-10-02T03:07:37.995Z,3.30
2022-10-02T03:08:38.257Z,2.80
2022-10-02T03:09:38.495Z,2.70
2022-10-02T03:10:38.731Z,2.90
2022-10-02T03:11:38.954Z,2.80
2022-10-02T03:12:39.198Z,2.70
2022-10-02T03:13:39.451Z,2.70
2022-10-02T03:14:39.695Z,2.70
2022-10-02T03:15:39.969Z,3.10
2022-10-02T03:16:40.211Z,2.70
2022-10-02T03:17:40.442Z,3.00
2022-10-02T03:18:40.670Z,3.40
2022-10-02T03:19:40.891Z,2.80
2022-10-02T03:20:41.134Z,3.00
2022-10-02T03:21:41.368Z,2.60
2022-10-02T03:22:41.604Z,2.70
2022-10-02T03:23:41.849Z,2.80
2022-10-02T03:24:42.087Z,2.80
2022-10-02T03:25:42.318Z,2.90
2022-10-02T03:26:42.551Z,3.20
2022-10-02T03:27:42.789Z,3.00
2022-10-02T03:28:55.531Z,2.90
2022-10-02T03:29:44.202Z,2.90
2022-10-02T03:30:43.456Z,2.60
2022-10-02T03:31:43.780Z,2.80
2022-10-02T03:32:43.842Z,3.00
2022-10-02T03:33:44.067Z,2.90
2022-10-02T03:34:44.336Z,2.60
2022-10-02T03:35:44.611Z,3.10
2022-10-02T03:36:44.838Z,2.70
2022-10-02T03:37:45.065Z,3.20
2022-10-02T03:38:50.101Z,2.80
2022-10-02T03:39:46.456Z,2.60
2022-10-02T03:40:45.698Z,2.70
2022-10-02T03:41:45.920Z,2.70
2022-10-02T03:42:46.126Z,2.80
2022-10-02T03:43:46.345Z,2.80
2022-10-02T03:44:46.560Z,3.10
2022-10-02T03:45:51.406Z,2.60
2022-10-02T03:46:48.029Z,3.00
2022-10-02T03:47:47.235Z,3.10
2022-10-02T03:48:47.455Z,2.70
2022-10-02T03:49:47.682Z,2.70
2022-10-02T03:50:47.913Z,3.30
2022-10-02T03:51:48.132Z,2.90
2022-10-02T03:52:48.365Z,3.00
2022-10-02T03:53:48.583Z,2.70
2022-10-02T03:54:48.817Z,2.50
2022-10-02T03:55:49.072Z,2.90
2022-10-02T03:56:49.297Z,2.70
2022-10-02T03:57:49.521Z,3.10
2022-10-02T03:58:49.738Z,2.80
2022-10-02T03:59:49.971Z,2.60
2022-10-02T04:00:50.245Z,2.90
2022-10-02T04:01:50.446Z,2.60
2022-10-02T04:02:50.576Z,2.80
2022-10-02T04:03:50.877Z,2.70
2022-10-02T04:04:51.008Z,2.60
2022-10-02T04:05:51.253Z,3.30
2022-10-02T04:06:51.462Z,2.60
2022-10-02T04:07:52.869Z,2.90
2022-10-02T04:08:51.930Z,2.80
2022-10-02T04:09:52.148Z,2.70
2022-10-02T04:10:52.380Z,2.80
2022-10-02T04:11:52.598Z,2.70
2022-10-02T04:12:52.824Z,2.80
2022-10-02T04:13:53.046Z,2.60
2022-10-02T04:14:53.274Z,2.40
2022-10-02T04:15:53.530Z,2.50
2022-10-02T04:16:53.722Z,2.50
2022-10-02T04:17:58.773Z,2.90
2022-10-02T04:18:55.127Z,2.60
2022-10-02T04:19:54.360Z,2.30
2022-10-02T04:20:54.605Z,2.50
2022-10-02T04:21:54.835Z,3.00
2022-10-02T04:22:55.058Z,2.90
2022-10-02T04:23:55.285Z,2.80
2022-10-02T04:24:55.516Z,2.50
2022-10-02T04:25:55.765Z,2.40
2022-10-02T04:26:55.989Z,2.50
2022-10-02T04:27:56.276Z,2.60
2022-10-02T04:28:56.402Z,2.60
2022-10-02T04:29:56.666Z,2.20
2022-10-02T04:30:56.910Z,2.50
2022-10-02T04:31:57.159Z,2.40
2022-10-02T04:32:57.440Z,2.40
2022-10-02T04:33:57.573Z,2.70
2022-10-02T04:34:57.755Z,2.50
2022-10-02T04:35:57.962Z,2.40
2022-10-02T04:36:58.151Z,2.60
2022-10-02T04:37:58.431Z,2.10
2022-10-02T04:38:58.595Z,2.70
2022-10-02T04:39:58.868Z,2.70
2022-10-02T04:40:59.171Z,2.50
2022-10-02T04:41:59.341Z,2.40
2022-10-02T04:42:59.506Z,2.30
2022-10-02T04:43:59.686Z,2.00
2022-10-02T04:44:59.846Z,2.20
2022-10-02T04:46:00.122Z,2.50
2022-10-02T04:47:00.255Z,2.10
2022-10-02T04:48:00.436Z,2.20
2022-10-02T04:49:00.620Z,2.10
2022-10-02T04:50:00.812Z,2.40
2022-10-02T04:51:01.019Z,2.40
2022-10-02T04:52:01.204Z,2.40
2022-10-02T04:53:01.390Z,2.50
2022-10-02T04:54:01.630Z,2.40
2022-10-02T04:55:01.841Z,2.40
2022-10-02T04:56:02.087Z,2.50
2022-10-02T04:57:02.297Z,2.20
2022-10-02T04:58:02.509Z,2.20
2022-10-02T04:59:02.727Z,2.40
2022-10-02T05:00:02.946Z,2.20
2022-10-02T05:01:03.210Z,2.00
2022-10-02T05:02:03.507Z,2.70
2022-10-02T05:03:03.618Z,2.10
2022-10-02T05:04:04.286Z,2.10
2022-10-02T05:05:04.081Z,2.20
2022-10-02T05:06:04.308Z,2.00
2022-10-02T05:07:04.529Z,2.20
2022-10-02T05:08:04.743Z,2.00
2022-10-02T05:09:04.956Z,2.60
2022-10-02T05:10:05.176Z,2.00
2022-10-02T05:11:05.407Z,1.90
2022-10-02T05:12:05.611Z,2.10
2022-10-02T05:13:05.827Z,2.00
2022-10-02T05:14:06.067Z,2.10
2022-10-02T05:15:06.289Z,2.40
2022-10-02T05:16:06.585Z,2.00
2022-10-02T05:17:06.674Z,1.90
2022-10-02T05:18:06.894Z,2.40
2022-10-02T05:19:07.108Z,2.00
2022-10-02T05:20:07.315Z,1.80
2022-10-02T05:21:07.559Z,2.00
2022-10-02T05:22:07.763Z,1.90
2022-10-02T05:23:07.984Z,2.10
2022-10-02T05:24:08.191Z,2.00
2022-10-02T05:25:08.408Z,1.70
2022-10-02T05:26:13.425Z,1.90
2022-10-02T05:27:09.782Z,2.20
2022-10-02T05:28:09.064Z,2.00
2022-10-02T05:29:09.189Z,2.10
2022-10-02T05:30:09.394Z,1.90
2022-10-02T05:31:09.676Z,2.10
2022-10-02T05:32:09.793Z,2.20
2022-10-02T05:33:09.995Z,2.40
2022-10-02T05:34:10.258Z,1.90
2022-10-02T05:35:10.471Z,2.20
2022-10-02T05:36:10.695Z,2.20
2022-10-02T05:37:10.921Z,1.90
2022-10-02T05:38:11.152Z,2.20
2022-10-02T05:39:11.361Z,2.40
2022-10-02T05:40:11.580Z,2.20
2022-10-02T05:41:11.820Z,2.30
2022-10-02T05:42:12.078Z,1.90
2022-10-02T05:43:12.290Z,2.00
2022-10-02T05:44:12.517Z,2.20
2022-10-02T05:45:12.741Z,2.10
2022-10-02T05:46:13.107Z,2.20
2022-10-02T05:47:13.128Z,2.10
2022-10-02T05:48:13.341Z,2.10
2022-10-02T05:49:13.546Z,2.10
2022-10-02T05:50:13.758Z,2.30
2022-10-02T05:51:13.981Z,2.20
2022-10-02T05:52:14.188Z,2.10
2022-10-02T05:53:14.392Z,2.40
2022-10-02T05:54:14.609Z,1.90
2022-10-02T05:55:14.819Z,2.10
2022-10-02T05:56:15.047Z,2.00
2022-10-02T05:57:15.247Z,2.40
2022-10-02T05:58:15.475Z,2.30
2022-10-02T05:59:15.686Z,2.10
2022-10-02T06:00:15.898Z,2.10
2022-10-02T06:01:16.163Z,2.10
2022-10-02T06:02:16.390Z,2.20
2022-10-02T06:03:16.510Z,2.20
2022-10-02T06:04:16.719Z,2.40
2022-10-02T06:05:16.930Z,2.40
2022-10-02T06:06:24.246Z,2.50
2022-10-02T06:07:17.397Z,2.80
2022-10-02T06:08:17.612Z,2.80
2022-10-02T06:09:19.975Z,2.90
2022-10-02T06:10:18.003Z,3.00
2022-10-02T06:11:18.206Z,2.60
2022-10-02T06:12:18.455Z,3.00
2022-10-02T06:13:18.664Z,2.80
2022-10-02T06:14:18.879Z,3.10
2022-10-02T06:15:19.110Z,2.80
2022-10-02T06:16:19.418Z,3.10
2022-10-02T06:17:19.536Z,3.10
2022-10-02T06:18:19.752Z,3.10
2022-10-02T06:19:19.975Z,3.10
2022-10-02T06:20:20.214Z,3.20
2022-10-02T06:21:20.448Z,3.00
2022-10-02T06:22:20.705Z,2.90
2022-10-02T06:23:20.950Z,3.20
2022-10-02T06:24:21.130Z,3.10
2022-10-02T06:25:21.373Z,3.60
2022-10-02T06:26:21.619Z,3.20
2022-10-02T06:27:21.875Z,3.20
2022-10-02T06:28:22.141Z,3.70
2022-10-02T06:29:26.909Z,3.10
2022-10-02T06:30:23.463Z,3.00
2022-10-02T06:31:22.737Z,3.10
2022-10-02T06:32:22.942Z,2.80
2022-10-02T06:33:23.179Z,3.00
2022-10-02T06:34:23.393Z,3.10
2022-10-02T06:35:23.615Z,2.90
2022-10-02T06:36:23.822Z,2.90
2022-10-02T06:37:24.051Z,2.90
2022-10-02T06:38:24.262Z,3.30
2022-10-02T06:39:24.478Z,3.60
2022-10-02T06:40:24.717Z,3.00
2022-10-02T06:41:24.915Z,3.50
2022-10-02T06:42:25.158Z,3.00
2022-10-02T06:43:25.369Z,3.20
2022-10-02T06:44:25.608Z,2.80
2022-10-02T06:45:25.915Z,2.90
2022-10-02T06:46:25.988Z,2.90
2022-10-02T06:47:26.257Z,3.10
2022-10-02T06:48:26.363Z,3.00
2022-10-02T06:49:26.574Z,2.80
2022-10-02T06:50:26.777Z,2.90
2022-10-02T06:51:27.009Z,3.40
2022-10-02T06:52:27.252Z,2.80
2022-10-02T06:53:27.461Z,3.20
2022-10-02T06:54:27.678Z,2.80
2022-10-02T06:55:27.896Z,2.70
2022-10-02T06:56:28.090Z,3.30
2022-10-02T06:57:28.366Z,3.00
2022-10-02T06:58:28.476Z,3.10
2022-10-02T06:59:28.690Z,2.90
2022-10-02T07:00:28.909Z,3.00
2022-10-02T07:01:29.121Z,3.20
2022-10-02T07:02:29.409Z,3.00
2022-10-02T07:03:29.513Z,2.90
2022-10-02T07:04:29.717Z,3.10
2022-10-02T07:05:29.963Z,3.00
2022-10-02T07:06:30.219Z,2.90
2022-10-02T07:07:30.464Z,3.10
2022-10-02T07:08:30.686Z,3.00
2022-10-02T07:09:30.903Z,3.40
2022-10-02T07:10:31.096Z,3.20
2022-10-02T07:11:31.304Z,3.40
2022-10-02T07:12:31.526Z,8.70
2022-10-02T07:13:31.725Z,4.80
2022-10-02T07:14:31.932Z,3.30
2022-10-02T07:15:32.125Z,3.30
2022-10-02T07:16:32.371Z,3.40
2022-10-02T07:17:32.568Z,3.20
2022-10-02T07:18:32.744Z,3.30
2022-10-02T07:19:32.933Z,3.30
2022-10-02T07:20:33.114Z,3.30
2022-10-02T07:21:33.302Z,3.60
2022-10-02T07:22:44.424Z,3.60
2022-10-02T07:23:34.683Z,3.90
2022-10-02T07:24:33.884Z,3.70
2022-10-02T07:25:34.082Z,3.30
2022-10-02T07:26:34.583Z,3.00
2022-10-02T07:27:34.515Z,3.20
2022-10-02T07:28:34.716Z,3.50
2022-10-02T07:29:34.889Z,3.30
2022-10-02T07:30:35.076Z,2.70
2022-10-02T07:31:35.290Z,3.00
2022-10-02T07:32:35.452Z,3.30
2022-10-02T07:33:35.623Z,3.10
2022-10-02T07:34:35.794Z,3.00
2022-10-02T07:35:35.956Z,2.80
2022-10-02T07:36:36.306Z,2.90
2022-10-02T07:37:36.323Z,2.70
2022-10-02T07:38:36.492Z,2.80
2022-10-02T07:39:36.661Z,3.10
2022-10-02T07:40:36.841Z,2.90
2022-10-02T07:41:37.022Z,3.20
2022-10-02T07:42:37.223Z,4.20
2022-10-02T07:43:37.391Z,12.20
2022-10-02T07:44:37.549Z,6.40
2022-10-02T07:45:37.767Z,4.00
2022-10-02T07:46:38.288Z,6.00
2022-10-02T07:47:38.011Z,4.30
2022-10-02T07:48:38.172Z,3.60
2022-10-02T07:49:38.331Z,3.90
2022-10-02T07:50:38.499Z,3.80
2022-10-02T07:51:38.667Z,7.60
2022-10-02T07:52:38.860Z,5.00
2022-10-02T07:53:39.106Z,4.90
2022-10-02T07:54:39.191Z,3.70
2022-10-02T07:55:39.341Z,3.90
2022-10-02T07:56:39.625Z,4.20
2022-10-02T07:57:39.701Z,3.20
2022-10-02T07:58:39.876Z,3.30
2022-10-02T07:59:40.051Z,3.40
2022-10-02T08:00:40.199Z,3.30
2022-10-02T08:01:40.372Z,3.50
2022-10-02T08:02:40.558Z,3.10
2022-10-02T08:03:40.796Z,3.10
2022-10-02T08:04:40.864Z,3.10
2022-10-02T08:05:41.015Z,3.10
2022-10-02T08:06:41.180Z,3.20
2022-10-02T08:07:41.351Z,3.80
2022-10-02T08:08:41.496Z,3.30
2022-10-02T08:09:41.639Z,3.30
2022-10-02T08:10:41.792Z,3.70
2022-10-02T08:11:45.034Z,3.30
2022-10-02T08:12:43.122Z,3.50
2022-10-02T08:13:42.162Z,3.80
2022-10-02T08:14:42.345Z,3.70
2022-10-02T08:15:42.503Z,3.30
2022-10-02T08:16:42.705Z,3.30
2022-10-02T08:17:42.870Z,3.40
2022-10-02T08:18:43.028Z,3.50
2022-10-02T08:19:43.310Z,3.40
2022-10-02T08:20:43.349Z,3.30
2022-10-02T08:21:43.499Z,3.60
2022-10-02T08:22:43.651Z,3.50
2022-10-02T08:23:43.793Z,3.50
2022-10-02T08:24:43.957Z,3.30
2022-10-02T08:25:44.139Z,3.20
2022-10-02T08:26:44.302Z,3.60
2022-10-02T08:27:44.464Z,3.40
2022-10-02T08:28:44.631Z,3.40
2022-10-02T08:29:44.803Z,3.50
2022-10-02T08:30:44.948Z,3.40
2022-10-02T08:31:45.154Z,3.90
2022-10-02T08:32:45.206Z,3.60
2022-10-02T08:33:45.388Z,3.70
2022-10-02T08:34:45.563Z,3.40
2022-10-02T08:35:45.719Z,3.70
2022-10-02T08:36:45.869Z,3.40
2022-10-02T08:37:46.030Z,3.50
2022-10-02T08:38:46.196Z,3.80
2022-10-02T08:39:46.348Z,3.80
2022-10-02T08:40:46.499Z,3.60
2022-10-02T08:41:46.647Z,3.20
2022-10-02T08:42:46.863Z,3.90
2022-10-02T08:43:47.060Z,3.40
2022-10-02T08:44:47.215Z,3.50
2022-10-02T08:45:47.493Z,3.70
2022-10-02T08:46:47.539Z,3.80
2022-10-02T08:47:47.702Z,3.80
2022-10-02T08:48:47.869Z,3.50
2022-10-02T08:49:48.030Z,3.50
2022-10-02T08:50:48.183Z,3.40
2022-10-02T08:51:48.364Z,3.30
2022-10-02T08:52:48.524Z,3.70
2022-10-02T08:53:48.681Z,3.70
2022-10-02T08:54:48.827Z,3.70
2022-10-02T08:55:48.978Z,3.80
2022-10-02T08:56:49.132Z,3.70
2022-10-02T08:57:49.290Z,3.50
2022-10-02T08:58:49.451Z,3.80
2022-10-02T08:59:49.671Z,3.70
2022-10-02T09:00:49.802Z,3.50
2022-10-02T09:01:50.012Z,3.60
2022-10-02T09:02:50.253Z,3.50
2022-10-02T09:03:50.303Z,3.50
2022-10-02T09:04:50.458Z,3.30
2022-10-02T09:05:50.616Z,3.70
2022-10-02T09:06:50.771Z,3.40
2022-10-02T09:07:50.936Z,3.80
2022-10-02T09:08:51.105Z,3.70
2022-10-02T09:09:51.295Z,3.50
2022-10-02T09:10:51.489Z,4.00
2022-10-02T09:11:51.655Z,3.80
2022-10-02T09:12:51.827Z,3.50
2022-10-02T09:13:52.003Z,3.40
2022-10-02T09:14:55.705Z,3.80
2022-10-02T09:15:53.282Z,3.60
2022-10-02T09:16:52.515Z,4.10
2022-10-02T09:17:52.557Z,3.90
2022-10-02T09:18:52.739Z,4.00
2022-10-02T09:19:52.910Z,3.80
2022-10-02T09:20:53.072Z,4.00
2022-10-02T09:21:53.241Z,3.90
2022-10-02T09:22:53.430Z,4.10
2022-10-02T09:23:53.616Z,4.10
2022-10-02T09:24:53.795Z,3.40
2022-10-02T09:25:53.968Z,4.10
2022-10-02T09:26:54.155Z,3.60
2022-10-02T09:27:54.359Z,3.70
2022-10-02T09:28:54.588Z,3.80
2022-10-02T09:29:54.646Z,4.10
2022-10-02T09:30:54.818Z,4.20
2022-10-02T09:31:55.043Z,3.70
2022-10-02T09:32:55.126Z,3.50
2022-10-02T09:33:55.331Z,3.60
2022-10-02T09:34:55.526Z,3.50
2022-10-02T09:35:55.704Z,4.20
2022-10-02T09:36:55.924Z,3.60
2022-10-02T09:37:56.100Z,3.70
2022-10-02T09:38:56.284Z,3.60
2022-10-02T09:39:56.480Z,3.60
2022-10-02T09:40:56.650Z,3.70
2022-10-02T09:41:56.802Z,3.50
2022-10-02T09:42:56.972Z,3.80
2022-10-02T09:43:57.163Z,3.80
2022-10-02T09:45:01.188Z,3.90
2022-10-02T09:45:57.495Z,3.50
2022-10-02T09:46:57.633Z,3.40
2022-10-02T09:47:57.798Z,3.20
2022-10-02T09:48:57.984Z,3.60
2022-10-02T09:49:58.142Z,3.50
2022-10-02T09:50:58.301Z,3.40
2022-10-02T09:51:58.457Z,3.10
2022-10-02T09:52:58.625Z,3.40
2022-10-02T09:53:58.786Z,3.20
2022-10-02T09:54:58.920Z,3.00
2022-10-02T09:55:59.068Z,3.10
2022-10-02T09:56:59.237Z,3.30
2022-10-02T09:57:59.378Z,3.00
2022-10-02T09:58:59.536Z,3.50
2022-10-02T09:59:59.673Z,3.30
2022-10-02T10:00:59.842Z,3.00
2022-10-02T10:02:00.033Z,3.10
2022-10-02T10:03:00.088Z,2.90
2022-10-02T10:04:00.260Z,3.10
2022-10-02T10:05:05.985Z,2.70
2022-10-02T10:06:01.481Z,2.90
2022-10-02T10:07:00.613Z,3.30
2022-10-02T10:08:00.744Z,3.20
2022-10-02T10:09:00.924Z,3.00
2022-10-02T10:10:01.057Z,2.80
2022-10-02T10:11:01.244Z,3.10
2022-10-02T10:12:01.396Z,3.30
2022-10-02T10:13:01.561Z,3.10
2022-10-02T10:14:01.742Z,3.40
2022-10-02T10:15:01.913Z,3.10
2022-10-02T10:16:02.145Z,2.90
2022-10-02T10:17:02.214Z,2.80
2022-10-02T10:18:02.373Z,3.60
2022-10-02T10:19:02.573Z,3.40
2022-10-02T10:20:02.726Z,3.40
2022-10-02T10:21:02.921Z,3.50
2022-10-02T10:22:03.100Z,3.90
2022-10-02T10:23:03.272Z,3.80
2022-10-02T10:24:03.460Z,4.00
2022-10-02T10:25:03.643Z,4.00
2022-10-02T10:26:03.819Z,4.30
2022-10-02T10:27:07.438Z,3.70
2022-10-02T10:28:06.224Z,4.10
2022-10-02T10:29:04.431Z,4.00
2022-10-02T10:30:04.610Z,4.30
2022-10-02T10:31:04.781Z,4.90
2022-10-02T10:32:05.009Z,4.40
2022-10-02T10:33:05.162Z,4.50
2022-10-02T10:34:05.391Z,5.00
2022-10-02T10:35:05.578Z,4.80
2022-10-02T10:36:05.770Z,4.70
2022-10-02T10:37:05.950Z,4.80
2022-10-02T10:38:06.131Z,5.40
2022-10-02T10:39:06.325Z,5.40
2022-10-02T10:40:06.509Z,6.20
2022-10-02T10:41:06.670Z,5.00
2022-10-02T10:42:06.834Z,11.90
2022-10-02T10:43:08.584Z,5.40
2022-10-02T10:44:07.115Z,4.90
2022-10-02T10:45:07.289Z,4.70
2022-10-02T10:46:07.505Z,3.40
2022-10-02T10:47:07.637Z,3.60
2022-10-02T10:48:07.787Z,3.60
2022-10-02T10:49:07.971Z,3.90
2022-10-02T10:50:08.114Z,4.10
2022-10-02T10:51:08.272Z,3.50
2022-10-02T10:52:08.409Z,3.70
2022-10-02T10:53:08.605Z,3.50
2022-10-02T10:54:08.776Z,4.00
2022-10-02T10:55:08.937Z,3.80
2022-10-02T10:56:09.094Z,3.50
2022-10-02T10:57:09.247Z,4.00
2022-10-02T10:58:09.411Z,3.80
2022-10-02T10:59:09.562Z,4.30
2022-10-02T11:00:09.698Z,4.90
2022-10-02T11:01:09.906Z,4.40
2022-10-02T11:02:10.037Z,4.10
2022-10-02T11:03:10.091Z,4.30
2022-10-02T11:04:10.248Z,3.80
2022-10-02T11:05:10.426Z,6.00
2022-10-02T11:06:10.569Z,4.90
2022-10-02T11:07:10.713Z,4.70
2022-10-02T11:08:10.857Z,3.90
2022-10-02T11:09:11.015Z,3.90
2022-10-02T11:10:11.177Z,3.70
2022-10-02T11:11:11.237Z,3.30
2022-10-02T11:12:11.370Z,3.90
2022-10-02T11:13:11.510Z,3.10
2022-10-02T11:14:11.685Z,3.00
2022-10-02T11:15:11.707Z,2.80
2022-10-02T11:16:11.902Z,2.80
2022-10-02T11:17:11.910Z,3.40
2022-10-02T11:18:12.059Z,3.60
2022-10-02T11:19:12.254Z,3.50
2022-10-02T11:20:12.278Z,3.40
2022-10-02T11:21:12.428Z,3.40
2022-10-02T11:22:12.576Z,3.80
2022-10-02T11:23:12.739Z,3.30
2022-10-02T11:24:12.907Z,4.10
2022-10-02T11:25:13.378Z,4.50
2022-10-02T11:26:13.221Z,5.90
2022-10-02T11:27:13.383Z,5.90
2022-10-02T11:28:13.581Z,5.50
2022-10-02T11:29:13.665Z,6.10
2022-10-02T11:30:13.823Z,5.20
2022-10-02T11:31:14.040Z,4.60
2022-10-02T11:32:14.229Z,4.10
2022-10-02T11:33:14.404Z,4.20
2022-10-02T11:34:14.596Z,4.30
2022-10-02T11:35:14.796Z,4.30
2022-10-02T11:36:14.975Z,4.50
2022-10-02T11:37:15.156Z,4.20
2022-10-02T11:38:15.349Z,4.30
2022-10-02T11:39:15.555Z,4.80
2022-10-02T11:40:15.712Z,5.30
2022-10-02T11:41:16.626Z,5.10
2022-10-02T11:42:16.025Z,5.90
2022-10-02T11:43:16.220Z,6.80
2022-10-02T11:44:16.768Z,7.70
2022-10-02T11:45:16.585Z,5.20
2022-10-02T11:46:16.858Z,4.90
2022-10-02T11:47:16.894Z,4.40
2022-10-02T11:48:17.035Z,7.10
2022-10-02T11:49:17.185Z,3.30
2022-10-02T11:50:17.311Z,4.00
2022-10-02T11:51:17.446Z,3.80
2022-10-02T11:52:17.560Z,3.40
2022-10-02T11:53:17.694Z,4.10
2022-10-02T11:54:17.824Z,3.10
2022-10-02T11:55:17.931Z,5.50
2022-10-02T11:56:18.034Z,3.60
2022-10-02T11:57:18.130Z,7.60
2022-10-02T11:58:18.236Z,5.40
2022-10-02T11:59:18.370Z,3.60
2022-10-02T12:00:18.440Z,4.70
2022-10-02T12:01:18.521Z,6.00
2022-10-02T12:02:18.674Z,3.60
2022-10-02T12:03:18.750Z,2.70
2022-10-02T12:04:18.714Z,2.80
2022-10-02T12:05:18.797Z,2.90
2022-10-02T12:06:18.875Z,3.50
2022-10-02T12:07:18.951Z,4.10
2022-10-02T12:08:19.025Z,4.30
2022-10-02T12:10:16.273Z,4.00
2022-10-02T12:11:16.349Z,3.90
2022-10-02T12:12:17.254Z,2.90
2022-10-02T12:13:16.654Z,2.80
2022-10-02T12:14:16.844Z,2.80
2022-10-02T12:15:17.024Z,3.60
2022-10-02T12:16:17.290Z,2.70
2022-10-02T12:17:17.392Z,2.40
2022-10-02T12:18:21.638Z,3.00
2022-10-02T12:19:17.748Z,2.90
2022-10-02T12:20:17.927Z,3.20
2022-10-02T12:21:18.092Z,3.40
2022-10-02T12:22:18.268Z,2.70
2022-10-02T12:23:18.428Z,2.80
2022-10-02T12:24:18.582Z,2.90
2022-10-02T12:25:18.758Z,2.80
2022-10-02T12:26:18.937Z,2.40
2022-10-02T12:27:19.071Z,2.70
2022-10-02T12:28:19.314Z,2.70
2022-10-02T12:29:19.459Z,2.50
2022-10-02T12:30:19.663Z,2.60
2022-10-02T12:31:19.888Z,2.50
2022-10-02T12:32:20.035Z,2.10
2022-10-02T12:33:20.268Z,2.50
2022-10-02T12:34:20.456Z,2.50
2022-10-02T12:35:20.666Z,2.50
2022-10-02T12:36:20.856Z,2.70
2022-10-02T12:37:21.047Z,2.20
2022-10-02T12:38:21.234Z,3.00
2022-10-02T12:39:22.258Z,2.30
2022-10-02T12:40:21.600Z,2.20
2022-10-02T12:41:21.782Z,2.20
2022-10-02T12:42:21.964Z,2.20
2022-10-02T12:43:22.147Z,2.40
2022-10-02T12:44:22.319Z,2.10
2022-10-02T12:45:22.516Z,2.10
2022-10-02T12:46:22.705Z,2.20
2022-10-02T12:47:22.894Z,2.10
2022-10-02T12:48:23.064Z,2.50
2022-10-02T12:49:23.255Z,2.30
2022-10-02T12:50:23.477Z,2.10
2022-10-02T12:51:23.621Z,2.00
2022-10-02T12:52:23.777Z,2.20
2022-10-02T12:53:23.943Z,1.90
2022-10-02T12:54:24.095Z,1.90
2022-10-02T12:55:24.258Z,2.10
2022-10-02T12:56:24.416Z,2.10
2022-10-02T12:57:24.567Z,2.00
2022-10-02T12:58:24.721Z,2.00
2022-10-02T12:59:24.884Z,1.70
2022-10-02T13:00:25.064Z,2.00
2022-10-02T13:01:25.275Z,1.80
2022-10-02T13:02:37.512Z,2.00
2022-10-02T13:03:26.468Z,1.80
2022-10-02T13:04:25.632Z,2.00
2022-10-02T13:05:25.835Z,1.60
2022-10-02T13:06:26.009Z,1.90
2022-10-02T13:07:26.218Z,2.10
2022-10-02T13:08:26.384Z,1.80
2022-10-02T13:09:29.793Z,1.70
2022-10-02T13:10:26.751Z,1.90
2022-10-02T13:11:26.938Z,1.80
2022-10-02T13:12:27.107Z,2.40
2022-10-02T13:13:27.289Z,2.00
2022-10-02T13:14:27.473Z,1.80
2022-10-02T13:15:27.660Z,1.90
2022-10-02T13:16:27.940Z,2.00
2022-10-02T13:17:28.049Z,2.20
2022-10-02T13:18:28.220Z,1.80
2022-10-02T13:19:28.398Z,1.80
2022-10-02T13:20:28.639Z,1.80
2022-10-02T13:21:28.711Z,1.90
2022-10-02T13:22:28.889Z,1.80